sensor_id;sensor_type;location;lat;lon;timestamp;pressure;altitude;pressure_sealevel;temperature;humidity
58955;BME280;45815;52.334;5.024;2023-02-19T00:01:21;101770.28;;;9.75;100.00
58955;BME280;45815;52.334;5.024;2023-02-19T00:03:49;101758.75;;;9.70;100.00
58955;BME280;45815;52.334;5.024;2023-02-19T00:06:17;101777.03;;;9.68;100.00
58955;BME280;45815;52.334;5.024;2023-02-19T00:08:43;101781.47;;;9.69;100.00
58955;BME280;45815;52.334;5.024;2023-02-19T00:11:11;101781.28;;;9.65;100.00
58955;BME280;45815;52.334;5.024;2023-02-19T00:13:38;101779.66;;;9.68;100.00
58955;BME280;45815;52.334;5.024;2023-02-19T00:16:06;101777.09;;;9.70;100.00
58955;BME280;45815;52.334;5.024;2023-02-19T00:18:31;101772.06;;;9.76;100.00
58955;BME280;45815;52.334;5.024;2023-02-19T00:20:57;101779.66;;;9.68;100.00
58955;BME280;45815;52.334;5.024;2023-02-19T00:23:22;101786.63;;;9.68;100.00
58955;BME280;45815;52.334;5.024;2023-02-19T00:25:48;101794.41;;;9.65;100.00
58955;BME280;45815;52.334;5.024;2023-02-19T00:28:13;101785.56;;;9.63;100.00
58955;BME280;45815;52.334;5.024;2023-02-19T00:30:38;101785.84;;;9.70;100.00
58955;BME280;45815;52.334;5.024;2023-02-19T00:33:04;101795.34;;;9.67;100.00
58955;BME280;45815;52.334;5.024;2023-02-19T00:35:33;101796.28;;;9.69;100.00
58955;BME280;45815;52.334;5.024;2023-02-19T00:37:58;101800.69;;;9.70;100.00
58955;BME280;45815;52.334;5.024;2023-02-19T00:40:24;101792.84;;;9.70;100.00
58955;BME280;45815;52.334;5.024;2023-02-19T00:42:52;101790.25;;;9.71;100.00
58955;BME280;45815;52.334;5.024;2023-02-19T00:45:17;101797.19;;;9.69;100.00
58955;BME280;45815;52.334;5.024;2023-02-19T00:47:43;101799.03;;;9.72;100.00
58955;BME280;45815;52.334;5.024;2023-02-19T00:50:08;101800.00;;;9.74;100.00
58955;BME280;45815;52.334;5.024;2023-02-19T00:52:34;101793.00;;;9.75;100.00
58955;BME280;45815;52.334;5.024;2023-02-19T00:54:59;101798.28;;;9.76;100.00
58955;BME280;45815;52.334;5.024;2023-02-19T00:57:25;101800.59;;;9.67;100.00
58955;BME280;45815;52.334;5.024;2023-02-19T00:59:50;101806.81;;;9.70;100.00
58955;BME280;45815;52.334;5.024;2023-02-19T01:02:16;101813.03;;;9.72;100.00
58955;BME280;45815;52.334;5.024;2023-02-19T01:04:41;101799.84;;;9.71;100.00
58955;BME280;45815;52.334;5.024;2023-02-19T01:07:07;101800.34;;;9.61;100.00
58955;BME280;45815;52.334;5.024;2023-02-19T01:09:33;101791.63;;;9.62;100.00
58955;BME280;45815;52.334;5.024;2023-02-19T01:11:58;101802.19;;;9.63;100.00
58955;BME280;45815;52.334;5.024;2023-02-19T01:14:24;101797.97;;;9.67;100.00
58955;BME280;45815;52.334;5.024;2023-02-19T01:16:49;101794.59;;;9.71;100.00
58955;BME280;45815;52.334;5.024;2023-02-19T01:19:15;101791.03;;;9.69;100.00
58955;BME280;45815;52.334;5.024;2023-02-19T01:21:41;101800.34;;;9.61;100.00
58955;BME280;45815;52.334;5.024;2023-02-19T01:24:07;101812.78;;;9.66;100.00
58955;BME280;45815;52.334;5.024;2023-02-19T01:26:33;101811.53;;;9.57;100.00
58955;BME280;45815;52.334;5.024;2023-02-19T01:29:01;101809.88;;;9.59;100.00
58955;BME280;45815;52.334;5.024;2023-02-19T01:31:27;101803.38;;;9.49;100.00
58955;BME280;45815;52.334;5.024;2023-02-19T01:33:55;101815.72;;;9.51;100.00
58955;BME280;45815;52.334;5.024;2023-02-19T01:36:22;101815.78;;;9.53;100.00
58955;BME280;45815;52.334;5.024;2023-02-19T01:38:48;101821.03;;;9.53;100.00
58955;BME280;45815;52.334;5.024;2023-02-19T01:41:17;101823.56;;;9.51;100.00
58955;BME280;45815;52.334;5.024;2023-02-19T01:46:31;101818.34;;;9.51;100.00
58955;BME280;45815;52.334;5.024;2023-02-19T01:49:18;101821.66;;;9.47;100.00
58955;BME280;45815;52.334;5.024;2023-02-19T01:51:59;101820.69;;;9.45;100.00
58955;BME280;45815;52.334;5.024;2023-02-19T01:54:29;101823.56;;;9.51;100.00
58955;BME280;45815;52.334;5.024;2023-02-19T01:56:57;101822.78;;;9.54;100.00
58955;BME280;45815;52.334;5.024;2023-02-19T01:59:23;101813.97;;;9.52;100.00
58955;BME280;45815;52.334;5.024;2023-02-19T02:01:50;101821.81;;;9.50;100.00
58955;BME280;45815;52.334;5.024;2023-02-19T02:04:16;101821.13;;;9.56;100.00
58955;BME280;45815;52.334;5.024;2023-02-19T02:06:56;101833.44;;;9.36;100.00
58955;BME280;45815;52.334;5.024;2023-02-19T02:09:26;101823.09;;;9.39;100.00
58955;BME280;45815;52.334;5.024;2023-02-19T02:12:10;101818.75;;;9.40;100.00
58955;BME280;45815;52.334;5.024;2023-02-19T02:14:40;101824.94;;;9.42;100.00
58955;BME280;45815;52.334;5.024;2023-02-19T02:17:25;101833.69;;;9.42;100.00
58955;BME280;45815;52.334;5.024;2023-02-19T02:25:58;101825.56;;;9.36;100.00
58955;BME280;45815;52.334;5.024;2023-02-19T02:31:13;101823.88;;;9.37;100.00
58955;BME280;45815;52.334;5.024;2023-02-19T02:33:58;101827.59;;;9.43;100.00
58955;BME280;45815;52.334;5.024;2023-02-19T02:36:37;101844.44;;;9.48;100.00
58955;BME280;45815;52.334;5.024;2023-02-19T02:39:07;101819.53;;;9.37;100.00
58955;BME280;45815;52.334;5.024;2023-02-19T02:41:42;101831.44;;;9.51;100.00
58955;BME280;45815;52.334;5.024;2023-02-19T02:44:08;101841.06;;;9.52;100.00
58955;BME280;45815;52.334;5.024;2023-02-19T02:46:34;101834.06;;;9.51;100.00
58955;BME280;45815;52.334;5.024;2023-02-19T02:49:04;101838.28;;;9.48;100.00
58955;BME280;45815;52.334;5.024;2023-02-19T02:51:40;101840.66;;;9.42;100.00
58955;BME280;45815;52.334;5.024;2023-02-19T02:54:20;101835.72;;;9.49;100.00
58955;BME280;45815;52.334;5.024;2023-02-19T02:57:10;101843.88;;;9.35;100.00
58955;BME280;45815;52.334;5.024;2023-02-19T02:59:43;101853.69;;;9.40;100.00
58955;BME280;45815;52.334;5.024;2023-02-19T03:02:14;101850.97;;;9.37;100.00
58955;BME280;45815;52.334;5.024;2023-02-19T03:10:21;101863.94;;;9.34;100.00
58955;BME280;45815;52.334;5.024;2023-02-19T03:12:49;101863.00;;;9.32;100.00
58955;BME280;45815;52.334;5.024;2023-02-19T03:15:42;101862.06;;;9.32;100.00
58955;BME280;45815;52.334;5.024;2023-02-19T03:18:29;101854.94;;;9.27;100.00
58955;BME280;45815;52.334;5.024;2023-02-19T03:21:16;101874.06;;;9.25;100.00
58955;BME280;45815;52.334;5.024;2023-02-19T03:23:44;101864.50;;;9.27;100.00
58955;BME280;45815;52.334;5.024;2023-02-19T03:26:30;101869.75;;;9.27;100.00
58955;BME280;45815;52.334;5.024;2023-02-19T03:28:59;101876.41;;;9.19;100.00
58955;BME280;45815;52.334;5.024;2023-02-19T03:31:46;101882.34;;;9.15;100.00
58955;BME280;45815;52.334;5.024;2023-02-19T03:34:17;101877.41;;;9.22;100.00
58955;BME280;45815;52.334;5.024;2023-02-19T03:37:01;101886.78;;;9.16;100.00
58955;BME280;45815;52.334;5.024;2023-02-19T03:39:31;101883.31;;;9.17;100.00
58955;BME280;45815;52.334;5.024;2023-02-19T03:47:56;101892.13;;;9.19;100.00
58955;BME280;45815;52.334;5.024;2023-02-19T03:53:13;101904.00;;;9.11;100.00
58955;BME280;45815;52.334;5.024;2023-02-19T03:55:46;101905.81;;;9.12;100.00
58955;BME280;45815;52.334;5.024;2023-02-19T03:58:23;101898.75;;;9.11;100.00
58955;BME280;45815;52.334;5.024;2023-02-19T04:00:57;101896.13;;;9.11;100.00
58955;BME280;45815;52.334;5.024;2023-02-19T04:06:03;101915.63;;;9.17;100.00
58955;BME280;45815;52.334;5.024;2023-02-19T04:08:34;101918.22;;;9.16;100.00
58955;BME280;45815;52.334;5.024;2023-02-19T04:11:03;101916.34;;;9.13;100.00
58955;BME280;45815;52.334;5.024;2023-02-19T04:13:43;101939.41;;;9.22;100.00
58955;BME280;45815;52.334;5.024;2023-02-19T04:16:15;101933.91;;;9.16;100.00
58955;BME280;45815;52.334;5.024;2023-02-19T04:18:42;101938.28;;;8.96;100.00
58955;BME280;45815;52.334;5.024;2023-02-19T04:21:08;101937.41;;;8.95;100.00
58955;BME280;45815;52.334;5.024;2023-02-19T04:23:38;101948.84;;;8.97;100.00
58955;BME280;45815;52.334;5.024;2023-02-19T04:26:05;101953.22;;;8.98;100.00
58955;BME280;45815;52.334;5.024;2023-02-19T04:28:33;101951.78;;;9.05;100.00
58955;BME280;45815;52.334;5.024;2023-02-19T04:30:59;101945.53;;;9.01;100.00
58955;BME280;45815;52.334;5.024;2023-02-19T04:33:24;101967.50;;;9.05;100.00
58955;BME280;45815;52.334;5.024;2023-02-19T04:35:50;101972.59;;;9.02;100.00
58955;BME280;45815;52.334;5.024;2023-02-19T04:38:15;101977.09;;;9.04;100.00
58955;BME280;45815;52.334;5.024;2023-02-19T04:40:41;101978.06;;;9.06;100.00
58955;BME280;45815;52.334;5.024;2023-02-19T04:43:06;101979.75;;;9.06;100.00
58955;BME280;45815;52.334;5.024;2023-02-19T04:45:32;101979.84;;;8.88;100.00
58955;BME280;45815;52.334;5.024;2023-02-19T04:47:57;101984.53;;;8.95;100.00
58955;BME280;45815;52.334;5.024;2023-02-19T04:50:23;101983.78;;;8.98;100.00
58955;BME280;45815;52.334;5.024;2023-02-19T04:52:49;101987.03;;;8.92;100.00
58955;BME280;45815;52.334;5.024;2023-02-19T04:55:14;101991.31;;;8.90;100.00
58955;BME280;45815;52.334;5.024;2023-02-19T04:57:40;102003.84;;;8.97;100.00
58955;BME280;45815;52.334;5.024;2023-02-19T05:00:06;102002.47;;;8.86;100.00
58955;BME280;45815;52.334;5.024;2023-02-19T05:02:32;102014.22;;;8.96;100.00
58955;BME280;45815;52.334;5.024;2023-02-19T05:04:58;102008.78;;;8.91;100.00
58955;BME280;45815;52.334;5.024;2023-02-19T05:07:23;102005.56;;;8.97;100.00
58955;BME280;45815;52.334;5.024;2023-02-19T05:09:48;102007.13;;;8.93;100.00
58955;BME280;45815;52.334;5.024;2023-02-19T05:12:14;102014.31;;;8.97;100.00
58955;BME280;45815;52.334;5.024;2023-02-19T05:14:39;102018.38;;;8.91;100.00
58955;BME280;45815;52.334;5.024;2023-02-19T05:17:05;102016.94;;;8.97;100.00
58955;BME280;45815;52.334;5.024;2023-02-19T05:19:30;102007.97;;;8.92;100.00
58955;BME280;45815;52.334;5.024;2023-02-19T05:21:55;102018.50;;;8.94;100.00
58955;BME280;45815;52.334;5.024;2023-02-19T05:24:21;102025.34;;;8.90;100.00
58955;BME280;45815;52.334;5.024;2023-02-19T05:26:48;102031.47;;;8.91;100.00
58955;BME280;45815;52.334;5.024;2023-02-19T05:29:14;102031.25;;;8.86;100.00
58955;BME280;45815;52.334;5.024;2023-02-19T05:31:39;102023.53;;;8.89;100.00
58955;BME280;45815;52.334;5.024;2023-02-19T05:34:05;102026.22;;;8.91;100.00
58955;BME280;45815;52.334;5.024;2023-02-19T05:36:30;102029.47;;;8.85;100.00
58955;BME280;45815;52.334;5.024;2023-02-19T05:38:56;102033.59;;;8.80;100.00
58955;BME280;45815;52.334;5.024;2023-02-19T05:41:24;102029.47;;;8.85;100.00
58955;BME280;45815;52.334;5.024;2023-02-19T05:43:53;102033.03;;;8.87;100.00
58955;BME280;45815;52.334;5.024;2023-02-19T05:46:20;102036.41;;;8.84;100.00
58955;BME280;45815;52.334;5.024;2023-02-19T05:48:48;102031.03;;;8.81;100.00
58955;BME280;45815;52.334;5.024;2023-02-19T05:51:19;102046.34;;;8.72;100.00
58955;BME280;45815;52.334;5.024;2023-02-19T05:53:46;102038.69;;;8.77;100.00
58955;BME280;45815;52.334;5.024;2023-02-19T05:56:33;102043.59;;;8.69;100.00
58955;BME280;45815;52.334;5.024;2023-02-19T05:59:17;102045.78;;;8.60;100.00
58955;BME280;45815;52.334;5.024;2023-02-19T06:01:43;102043.63;;;8.71;100.00
58955;BME280;45815;52.334;5.024;2023-02-19T06:04:12;102047.41;;;8.58;100.00
58955;BME280;45815;52.334;5.024;2023-02-19T06:06:39;102058.91;;;8.61;100.00
58955;BME280;45815;52.334;5.024;2023-02-19T06:09:06;102075.22;;;8.74;100.00
58955;BME280;45815;52.334;5.024;2023-02-19T06:11:32;102075.97;;;8.71;100.00
58955;BME280;45815;52.334;5.024;2023-02-19T06:13:58;102082.09;;;8.72;100.00
58955;BME280;45815;52.334;5.024;2023-02-19T06:16:23;102080.16;;;8.68;100.00
58955;BME280;45815;52.334;5.024;2023-02-19T06:18:49;102097.16;;;8.77;100.00
58955;BME280;45815;52.334;5.024;2023-02-19T06:21:15;102089.09;;;8.73;100.00
58955;BME280;45815;52.334;5.024;2023-02-19T06:23:42;102096.41;;;8.80;100.00
58955;BME280;45815;52.334;5.024;2023-02-19T06:26:10;102085.34;;;8.85;100.00
58955;BME280;45815;52.334;5.024;2023-02-19T06:28:36;102089.41;;;8.79;100.00
58955;BME280;45815;52.334;5.024;2023-02-19T06:31:02;102083.19;;;8.77;100.00
58955;BME280;45815;52.334;5.024;2023-02-19T06:33:28;102094.84;;;8.83;100.00
58955;BME280;45815;52.334;5.024;2023-02-19T06:35:53;102100.84;;;8.81;100.00
58955;BME280;45815;52.334;5.024;2023-02-19T06:38:21;102096.63;;;8.84;100.00
58955;BME280;45815;52.334;5.024;2023-02-19T06:40:46;102104.44;;;8.83;100.00
58955;BME280;45815;52.334;5.024;2023-02-19T06:43:12;102109.16;;;8.92;100.00
58955;BME280;45815;52.334;5.024;2023-02-19T06:45:37;102107.53;;;8.94;100.00
58955;BME280;45815;52.334;5.024;2023-02-19T06:48:03;102103.72;;;8.87;100.00
58955;BME280;45815;52.334;5.024;2023-02-19T06:50:29;102110.56;;;8.83;100.00
58955;BME280;45815;52.334;5.024;2023-02-19T06:52:55;102103.72;;;8.87;100.00
58955;BME280;45815;52.334;5.024;2023-02-19T06:55:20;102118.69;;;8.90;100.00
58955;BME280;45815;52.334;5.024;2023-02-19T06:57:46;102123.19;;;8.92;100.00
58955;BME280;45815;52.334;5.024;2023-02-19T07:00:11;102131.63;;;8.86;100.00
58955;BME280;45815;52.334;5.024;2023-02-19T07:02:37;102135.16;;;8.87;100.00
58955;BME280;45815;52.334;5.024;2023-02-19T07:05:02;102137.22;;;8.94;100.00
58955;BME280;45815;52.334;5.024;2023-02-19T07:07:28;102141.09;;;9.02;100.00
58955;BME280;45815;52.334;5.024;2023-02-19T07:09:53;102129.75;;;9.02;100.00
58955;BME280;45815;52.334;5.024;2023-02-19T07:12:19;102141.41;;;9.08;100.00
58955;BME280;45815;52.334;5.024;2023-02-19T07:14:44;102152.00;;;9.12;100.00
58955;BME280;45815;52.334;5.024;2023-02-19T07:17:09;102160.16;;;9.18;100.00
58955;BME280;45815;52.334;5.024;2023-02-19T07:19:35;102152.56;;;9.04;100.00
58955;BME280;45815;52.334;5.024;2023-02-19T07:22:00;102156.19;;;9.08;100.00
58955;BME280;45815;52.334;5.024;2023-02-19T07:24:26;102161.44;;;9.08;100.00
58955;BME280;45815;52.334;5.024;2023-02-19T07:26:52;102165.88;;;9.09;100.00
58955;BME280;45815;52.334;5.024;2023-02-19T07:29:17;102169.28;;;9.08;100.00
58955;BME280;45815;52.334;5.024;2023-02-19T07:31:42;102180.16;;;9.16;100.00
58955;BME280;45815;52.334;5.024;2023-02-19T07:34:08;102183.31;;;9.08;100.00
58955;BME280;45815;52.334;5.024;2023-02-19T07:36:33;102179.97;;;9.13;100.00
58955;BME280;45815;52.334;5.024;2023-02-19T07:38:59;102187.91;;;9.14;100.00
58955;BME280;45815;52.334;5.024;2023-02-19T07:41:25;102195.66;;;8.93;100.00
58955;BME280;45815;52.334;5.024;2023-02-19T07:43:54;102191.72;;;9.01;100.00
58955;BME280;45815;52.334;5.024;2023-02-19T07:46:21;102204.72;;;9.00;100.00
58955;BME280;45815;52.334;5.024;2023-02-19T07:48:47;102210.72;;;8.97;100.00
58955;BME280;45815;52.334;5.024;2023-02-19T07:51:15;102211.47;;;8.95;100.00
58955;BME280;45815;52.334;5.024;2023-02-19T07:53:43;102215.78;;;8.94;100.00
58955;BME280;45815;52.334;5.024;2023-02-19T07:56:10;102203.22;;;8.87;100.00
58955;BME280;45815;52.334;5.024;2023-02-19T07:58:37;102217.47;;;8.92;100.00
58955;BME280;45815;52.334;5.024;2023-02-19T08:01:13;102222.38;;;8.86;100.00
58955;BME280;45815;52.334;5.024;2023-02-19T08:03:38;102227.19;;;8.95;100.00
58955;BME280;45815;52.334;5.024;2023-02-19T08:06:05;102228.19;;;8.98;100.00
58955;BME280;45815;52.334;5.024;2023-02-19T08:08:30;102235.69;;;9.08;100.00
58955;BME280;45815;52.334;5.024;2023-02-19T08:10:59;102228.38;;;9.01;100.00
58955;BME280;45815;52.334;5.024;2023-02-19T08:13:43;102234.19;;;9.14;100.00
58955;BME280;45815;52.334;5.024;2023-02-19T08:16:11;102239.56;;;9.17;100.00
58955;BME280;45815;52.334;5.024;2023-02-19T08:18:37;102242.09;;;9.15;100.00
58955;BME280;45815;52.334;5.024;2023-02-19T08:21:03;102233.34;;;9.15;100.00
58955;BME280;45815;52.334;5.024;2023-02-19T08:23:28;102243.91;;;9.16;100.00
58955;BME280;45815;52.334;5.024;2023-02-19T08:25:57;102256.03;;;9.14;100.00
58955;BME280;45815;52.334;5.024;2023-02-19T08:28:24;102262.31;;;9.18;100.00
58955;BME280;45815;52.334;5.024;2023-02-19T08:30:50;102265.88;;;9.20;100.00
58955;BME280;45815;52.334;5.024;2023-02-19T08:33:17;102275.16;;;9.31;100.00
58955;BME280;45815;52.334;5.024;2023-02-19T08:35:43;102271.03;;;9.36;100.00
58955;BME280;45815;52.334;5.024;2023-02-19T08:38:10;102279.84;;;9.38;100.00
58955;BME280;45815;52.334;5.024;2023-02-19T08:40:37;102268.69;;;9.42;100.00
58955;BME280;45815;52.334;5.024;2023-02-19T08:43:08;102265.53;;;9.49;100.00
58955;BME280;45815;52.334;5.024;2023-02-19T08:45:36;102244.97;;;9.39;100.00
58955;BME280;45815;52.334;5.024;2023-02-19T08:48:01;102257.38;;;9.43;100.00
58955;BME280;45815;52.334;5.024;2023-02-19T08:50:27;102267.19;;;9.47;100.00
58955;BME280;45815;52.334;5.024;2023-02-19T08:52:52;102272.44;;;9.47;100.00
58955;BME280;45815;52.334;5.024;2023-02-19T08:55:18;102273.31;;;9.48;100.00
58955;BME280;45815;52.334;5.024;2023-02-19T08:57:43;102281.34;;;9.51;100.00
58955;BME280;45815;52.334;5.024;2023-02-19T09:00:10;102281.56;;;9.56;100.00
58955;BME280;45815;52.334;5.024;2023-02-19T09:02:36;102280.03;;;9.61;100.00
58955;BME280;45815;52.334;5.024;2023-02-19T09:05:01;102281.69;;;9.59;100.00
58955;BME280;45815;52.334;5.024;2023-02-19T09:07:27;102283.47;;;9.60;100.00
58955;BME280;45815;52.334;5.024;2023-02-19T09:09:53;102301.69;;;9.57;100.00
58955;BME280;45815;52.334;5.024;2023-02-19T09:12:18;102300.13;;;9.60;100.00
58955;BME280;45815;52.334;5.024;2023-02-19T09:14:44;102309.13;;;9.47;100.00
58955;BME280;45815;52.334;5.024;2023-02-19T09:17:10;102308.34;;;9.30;100.00
58955;BME280;45815;52.334;5.024;2023-02-19T09:19:35;102315.00;;;9.24;100.00
58955;BME280;45815;52.334;5.024;2023-02-19T09:22:02;102319.13;;;9.19;100.00
58955;BME280;45815;52.334;5.024;2023-02-19T09:24:28;102338.78;;;9.11;100.00
58955;BME280;45815;52.334;5.024;2023-02-19T09:26:54;102347.88;;;8.99;100.00
58955;BME280;45815;52.334;5.024;2023-02-19T09:29:24;102350.03;;;8.90;100.00
58955;BME280;45815;52.334;5.024;2023-02-19T09:31:50;102351.53;;;8.85;100.00
58955;BME280;45815;52.334;5.024;2023-02-19T09:34:15;102358.91;;;8.76;100.00
58955;BME280;45815;52.334;5.024;2023-02-19T09:36:41;102367.41;;;8.72;100.00
58955;BME280;45815;52.334;5.024;2023-02-19T09:39:07;102377.56;;;8.65;100.00
58955;BME280;45815;52.334;5.024;2023-02-19T09:41:37;102380.03;;;8.62;100.00
58955;BME280;45815;52.334;5.024;2023-02-19T09:44:05;102381.81;;;8.63;100.00
58955;BME280;45815;52.334;5.024;2023-02-19T09:46:49;102383.31;;;8.58;100.00
58955;BME280;45815;52.334;5.024;2023-02-19T09:49:30;102385.75;;;8.39;100.00
58955;BME280;45815;52.334;5.024;2023-02-19T09:52:08;102390.19;;;8.40;100.00
58955;BME280;45815;52.334;5.024;2023-02-19T09:54:38;102415.22;;;8.51;100.00
58955;BME280;45815;52.334;5.024;2023-02-19T09:57:10;102422.16;;;8.51;100.00
58955;BME280;45815;52.334;5.024;2023-02-19T09:59:45;102421.09;;;8.47;100.00
58955;BME280;45815;52.334;5.024;2023-02-19T10:02:15;102423.06;;;8.51;100.00
58955;BME280;45815;52.334;5.024;2023-02-19T10:04:42;102431.81;;;8.52;100.00
58955;BME280;45815;52.334;5.024;2023-02-19T10:07:13;102428.28;;;8.51;100.00
58955;BME280;45815;52.334;5.024;2023-02-19T10:09:39;102435.50;;;8.55;100.00
58955;BME280;45815;52.334;5.024;2023-02-19T10:12:18;102452.69;;;8.50;100.00
58955;BME280;45815;52.334;5.024;2023-02-19T10:14:48;102466.47;;;8.31;100.00
58955;BME280;45815;52.334;5.024;2023-02-19T10:17:30;102470.38;;;8.39;100.00
58955;BME280;45815;52.334;5.024;2023-02-19T10:19:59;102470.16;;;8.51;100.00
58955;BME280;45815;52.334;5.024;2023-02-19T10:22:27;102460.53;;;8.50;100.00
58955;BME280;45815;52.334;5.024;2023-02-19T10:24:55;102489.81;;;8.59;100.00
58955;BME280;45815;52.334;5.024;2023-02-19T10:27:20;102490.44;;;8.55;100.00
58955;BME280;45815;52.334;5.024;2023-02-19T10:29:48;102479.97;;;8.55;100.00
58955;BME280;45815;52.334;5.024;2023-02-19T10:32:22;102482.44;;;8.52;100.00
58955;BME280;45815;52.334;5.024;2023-02-19T10:35:11;102496.72;;;8.42;100.00
58955;BME280;45815;52.334;5.024;2023-02-19T10:37:48;102491.69;;;8.31;100.00
58955;BME280;45815;52.334;5.024;2023-02-19T10:40:25;102489.16;;;8.32;100.00
58955;BME280;45815;52.334;5.024;2023-02-19T10:43:02;102491.69;;;8.31;100.00
58955;BME280;45815;52.334;5.024;2023-02-19T10:45:39;102478.34;;;8.26;100.00
58955;BME280;45815;52.334;5.024;2023-02-19T10:48:06;102471.59;;;8.30;100.00
58955;BME280;45815;52.334;5.024;2023-02-19T10:50:34;102476.34;;;8.37;100.00
58955;BME280;45815;52.334;5.024;2023-02-19T10:53:19;102474.38;;;8.33;100.00
58955;BME280;45815;52.334;5.024;2023-02-19T10:55:47;102476.88;;;8.46;100.00
58955;BME280;45815;52.334;5.024;2023-02-19T10:58:25;102481.03;;;8.42;100.00
58955;BME280;45815;52.334;5.024;2023-02-19T11:01:11;102488.13;;;8.45;100.00
58955;BME280;45815;52.334;5.024;2023-02-19T11:03:36;102489.63;;;8.56;100.00
58955;BME280;45815;52.334;5.024;2023-02-19T11:06:04;102480.63;;;8.51;100.00
58955;BME280;45815;52.334;5.024;2023-02-19T11:08:58;102507.69;;;8.52;100.00
58955;BME280;45815;52.334;5.024;2023-02-19T11:11:34;102502.06;;;8.60;100.00
58955;BME280;45815;52.334;5.024;2023-02-19T11:14:04;102496.44;;;8.53;100.00
58955;BME280;45815;52.334;5.024;2023-02-19T11:16:39;102507.53;;;8.65;100.00
58955;BME280;45815;52.334;5.024;2023-02-19T11:19:05;102507.94;;;8.73;100.00
58955;BME280;45815;52.334;5.024;2023-02-19T11:21:42;102497.16;;;8.83;100.00
58955;BME280;45815;52.334;5.024;2023-02-19T11:24:24;102507.28;;;8.93;100.00
58955;BME280;45815;52.334;5.024;2023-02-19T11:26:51;102493.69;;;9.00;100.00
58955;BME280;45815;52.334;5.024;2023-02-19T11:29:20;102511.13;;;9.16;100.00
58955;BME280;45815;52.334;5.024;2023-02-19T11:31:49;102506.91;;;9.20;100.00
58955;BME280;45815;52.334;5.024;2023-02-19T11:36:45;102500.22;;;9.25;100.00
58955;BME280;45815;52.334;5.024;2023-02-19T11:44:57;102488.94;;;9.09;100.00
58955;BME280;45815;52.334;5.024;2023-02-19T11:47:56;102494.03;;;9.06;100.00
58955;BME280;45815;52.334;5.024;2023-02-19T11:53:28;102506.69;;;8.99;100.00
58955;BME280;45815;52.334;5.024;2023-02-19T11:56:18;102505.81;;;8.98;100.00
58955;BME280;45815;52.334;5.024;2023-02-19T12:12:35;102518.09;;;8.99;100.00
58955;BME280;45815;52.334;5.024;2023-02-19T12:15:21;102511.53;;;8.91;100.00
58955;BME280;45815;52.334;5.024;2023-02-19T12:18:19;102516.69;;;8.90;100.00
58955;BME280;45815;52.334;5.024;2023-02-19T12:26:29;102518.75;;;8.95;100.00
58955;BME280;45815;52.334;5.024;2023-02-19T12:32:17;102529.72;;;8.88;100.00
58955;BME280;45815;52.334;5.024;2023-02-19T12:35:02;102512.94;;;8.84;100.00
58955;BME280;45815;52.334;5.024;2023-02-19T12:40:16;102524.97;;;8.97;100.00
58955;BME280;45815;52.334;5.024;2023-02-19T12:45:32;102539.78;;;8.97;100.00
58955;BME280;45815;52.334;5.024;2023-02-19T12:48:13;102547.56;;;8.95;100.00
58955;BME280;45815;52.334;5.024;2023-02-19T12:50:43;102543.38;;;8.99;100.00
58955;BME280;45815;52.334;5.024;2023-02-19T12:53:33;102553.78;;;8.97;100.00
58955;BME280;45815;52.334;5.024;2023-02-19T12:55:55;102554.44;;;8.93;100.00
58955;BME280;45815;52.334;5.024;2023-02-19T12:58:31;102549.44;;;8.81;100.00
58955;BME280;45815;52.334;5.024;2023-02-19T13:00:59;102565.78;;;8.94;100.00
58955;BME280;45815;52.334;5.024;2023-02-19T13:03:32;102574.88;;;8.84;100.00
58955;BME280;45815;52.334;5.024;2023-02-19T13:08:55;102581.00;;;8.84;100.00
58955;BME280;45815;52.334;5.024;2023-02-19T13:11:30;102584.53;;;8.69;100.00
58955;BME280;45815;52.334;5.024;2023-02-19T13:14:03;102586.47;;;8.73;100.00
58955;BME280;45815;52.334;5.024;2023-02-19T13:16:32;102580.25;;;8.71;100.00
58955;BME280;45815;52.334;5.024;2023-02-19T13:19:01;102586.31;;;8.70;100.00
58955;BME280;45815;52.334;5.024;2023-02-19T13:21:33;102587.78;;;8.64;100.00
58955;BME280;45815;52.334;5.024;2023-02-19T13:24:44;102593.84;;;8.63;100.00
58955;BME280;45815;52.334;5.024;2023-02-19T13:27:15;102595.63;;;8.48;100.00
58955;BME280;45815;52.334;5.024;2023-02-19T13:37:48;102596.63;;;8.50;100.00
58955;BME280;45815;52.334;5.024;2023-02-19T13:40:32;102605.53;;;8.39;100.00
58955;BME280;45815;52.334;5.024;2023-02-19T13:43:03;102603.72;;;8.38;100.00
58955;BME280;45815;52.334;5.024;2023-02-19T13:45:41;102615.66;;;8.33;100.00
58955;BME280;45815;52.334;5.024;2023-02-19T13:50:48;102635.97;;;8.22;100.00
58955;BME280;45815;52.334;5.024;2023-02-19T14:14:48;102618.50;;;8.06;100.00
58955;BME280;45815;52.334;5.024;2023-02-19T14:19:52;102604.31;;;8.17;100.00
58955;BME280;45815;52.334;5.024;2023-02-19T14:22:47;102598.09;;;8.15;100.00
58955;BME280;45815;52.334;5.024;2023-02-19T14:30:54;102585.41;;;8.38;100.00
58955;BME280;45815;52.334;5.024;2023-02-19T14:38:56;102569.25;;;8.45;100.00
58955;BME280;45815;52.334;5.024;2023-02-19T14:41:22;102548.06;;;8.40;100.00
58955;BME280;45815;52.334;5.024;2023-02-19T14:43:51;102564.84;;;8.44;100.00
58955;BME280;45815;52.334;5.024;2023-02-19T14:46:35;102556.94;;;8.28;100.00
58955;BME280;45815;52.334;5.024;2023-02-19T14:49:17;102564.22;;;8.33;100.00
58955;BME280;45815;52.334;5.024;2023-02-19T14:51:49;102562.13;;;8.42;100.00
58955;BME280;45815;52.334;5.024;2023-02-19T14:54:18;102563.38;;;8.18;100.00
58955;BME280;45815;52.334;5.024;2023-02-19T14:56:47;102566.47;;;8.42;100.00
58955;BME280;45815;52.334;5.024;2023-02-19T14:59:24;102560.44;;;8.43;100.00
58955;BME280;45815;52.334;5.024;2023-02-19T15:02:01;102556.56;;;8.36;100.00